KMZH

Moose Lake Carlton County Airport

Moose Lake, Minnesota, USA
METAR KMZH 140000Z AUTO 00000KT 4SM BR CLR M05/M06 A3004 RMK AO2
Observed Flight Rules
Dec-14 @ 00:00 UTC (45 minutes ago) Marginal Visual Flight Rules
Visibility Clouds Conditions
4 miles
  • Clear skies
  • Mist
Temperatures Readings
Current -5°C / 23°F
Dewpoint -6°C / 21°F
Humidity 93%
Altimeter 30.04" Hg
Pressure 1017 hPa
Elevation 328
METAR KMZH 140000Z AUTO 00000KT 4SM BR CLR M05/M06 A3004 RMK AO2
Observed Flight Rules
Dec-14 @ 00:00 UTC
(45 minutes ago)
MVFR
Clouds
  • Clear skies
Conditions
  • Mist
Temperature Dewpoint
-5°C / 23°F -6°C / 21°F
Humidity Altimeter Pressure
93% 30.04" Hg 1017 hPa